createdAt,value
2023-03-27T00:00:25.260Z,11.60
2023-03-27T00:01:26.993Z,12.69
2023-03-27T00:02:23.789Z,10
2023-03-27T00:03:23.116Z,11.39
2023-03-27T00:04:23.005Z,9
2023-03-27T00:05:23.000Z,14.80
2023-03-27T00:06:23.308Z,12.5
2023-03-27T00:07:23.453Z,10
2023-03-27T00:08:23.165Z,8.399
2023-03-27T00:09:23.269Z,11.19
2023-03-27T00:10:23.421Z,9.800
2023-03-27T00:11:22.805Z,11.30
2023-03-27T00:12:22.985Z,10
2023-03-27T00:13:23.005Z,11.19
2023-03-27T00:14:36.997Z,9.5
2023-03-27T00:16:40.667Z,11.89
2023-03-27T00:17:22.475Z,10.60
2023-03-27T00:18:23.343Z,10.5
2023-03-27T00:19:22.847Z,11.60
2023-03-27T00:20:22.700Z,10
2023-03-27T00:21:22.946Z,8.600
2023-03-27T00:22:22.985Z,11.60
2023-03-27T00:23:22.988Z,9.300
2023-03-27T00:24:23.189Z,11.80
2023-03-27T00:25:23.049Z,9.600
2023-03-27T00:26:22.804Z,10.69
2023-03-27T00:27:23.448Z,9.399
2023-03-27T00:28:23.023Z,8.699
2023-03-27T00:29:23.386Z,9
2023-03-27T00:30:23.054Z,11.10
2023-03-27T00:31:23.432Z,8.399
2023-03-27T00:32:23.350Z,13.69
2023-03-27T00:33:23.035Z,8.800
2023-03-27T00:34:22.738Z,10.19
2023-03-27T00:35:22.796Z,8.300
2023-03-27T00:36:22.752Z,11.39
2023-03-27T00:37:23.262Z,10.39
2023-03-27T00:39:26.104Z,11.30
2023-03-27T00:40:22.981Z,7.800
2023-03-27T00:41:22.926Z,10
2023-03-27T00:42:23.035Z,9.600
2023-03-27T00:43:22.862Z,10.39
2023-03-27T00:44:22.776Z,11.80
2023-03-27T00:45:23.113Z,12.10
2023-03-27T00:46:23.231Z,10.60
2023-03-27T00:47:23.241Z,13.60
2023-03-27T00:48:23.117Z,12.30
2023-03-27T00:49:23.343Z,9.300
2023-03-27T00:50:23.113Z,11
2023-03-27T00:51:22.930Z,10.89
2023-03-27T00:52:22.655Z,12.10
2023-03-27T00:53:22.981Z,10.5
2023-03-27T00:54:23.173Z,12.5
2023-03-27T00:55:23.129Z,9.699
2023-03-27T00:56:22.805Z,9.100
2023-03-27T00:57:23.214Z,10.10
2023-03-27T00:58:22.771Z,10.89
2023-03-27T00:59:23.688Z,10.60
2023-03-27T01:00:24.212Z,11.5
2023-03-27T01:01:23.015Z,7.699
2023-03-27T01:02:23.457Z,9.300
2023-03-27T01:04:23.113Z,9.100
2023-03-27T01:05:23.278Z,13.10
2023-03-27T01:06:23.419Z,11.30
2023-03-27T01:07:23.279Z,11
2023-03-27T01:08:23.064Z,8.699
2023-03-27T01:09:23.204Z,8.399
2023-03-27T01:10:23.237Z,8.899
2023-03-27T01:11:23.300Z,9.800
2023-03-27T01:12:23.389Z,9.899
2023-03-27T01:13:23.052Z,8.699
2023-03-27T01:14:23.248Z,10.5
2023-03-27T01:15:23.591Z,11.39
2023-03-27T01:16:23.124Z,11.60
2023-03-27T01:17:23.749Z,9.899
2023-03-27T01:18:22.811Z,8.600
2023-03-27T01:19:23.469Z,11.69
2023-03-27T01:20:23.053Z,9.899
2023-03-27T01:21:23.245Z,8.600
2023-03-27T01:22:23.108Z,11.80
2023-03-27T01:23:36.382Z,10.19
2023-03-27T01:24:33.594Z,9.899
2023-03-27T01:25:22.987Z,12.60
2023-03-27T01:26:35.716Z,8.600
2023-03-27T01:27:23.602Z,11.5
2023-03-27T01:28:23.375Z,11.60
2023-03-27T01:29:23.590Z,7.800
2023-03-27T01:30:23.207Z,14.60
2023-03-27T01:31:23.851Z,10.80
2023-03-27T01:32:23.186Z,9.699
2023-03-27T01:33:23.046Z,8.800
2023-03-27T01:34:23.149Z,8.699
2023-03-27T01:35:23.346Z,9.800
2023-03-27T01:36:23.251Z,10.39
2023-03-27T01:37:22.995Z,11.19
2023-03-27T01:38:22.696Z,10.39
2023-03-27T01:39:23.508Z,9.300
2023-03-27T01:40:22.984Z,8.399
2023-03-27T01:41:22.836Z,10.10
2023-03-27T01:42:22.858Z,10.5
2023-03-27T01:43:22.849Z,9
2023-03-27T01:44:23.223Z,13.30
2023-03-27T01:45:23.441Z,12.60
2023-03-27T01:46:23.612Z,8.800
2023-03-27T01:47:22.855Z,13.69
2023-03-27T01:48:22.678Z,10.89
2023-03-27T01:49:23.024Z,9.600
2023-03-27T01:50:22.966Z,11.19
2023-03-27T01:51:22.989Z,9.899
2023-03-27T01:52:22.930Z,7.099
2023-03-27T01:53:22.729Z,11.89
2023-03-27T01:54:22.712Z,8.899
2023-03-27T01:55:22.759Z,11.19
2023-03-27T01:56:22.797Z,9.100
2023-03-27T01:57:23.794Z,8.199
2023-03-27T01:58:23.238Z,15
2023-03-27T01:59:22.975Z,10.30
2023-03-27T02:00:24.143Z,11.80
2023-03-27T02:01:23.241Z,9.600
2023-03-27T02:02:23.306Z,9.899
2023-03-27T02:03:22.225Z,8.899
2023-03-27T02:04:23.331Z,8.399
2023-03-27T02:05:23.420Z,9.300
2023-03-27T02:06:23.597Z,7.900
2023-03-27T02:07:22.832Z,10.39
2023-03-27T02:08:23.449Z,10.60
2023-03-27T02:09:23.082Z,8.300
2023-03-27T02:10:23.251Z,11.89
2023-03-27T02:11:22.907Z,10
2023-03-27T02:12:23.082Z,10.69
2023-03-27T02:13:23.152Z,13.19
2023-03-27T02:14:23.315Z,8.699
2023-03-27T02:15:25.535Z,9
2023-03-27T02:16:22.514Z,9.600
2023-03-27T02:17:23.655Z,10.60
2023-03-27T02:18:22.674Z,10.5
2023-03-27T02:19:23.192Z,7.699
2023-03-27T02:21:23.397Z,10.19
2023-03-27T02:22:37.701Z,8
2023-03-27T02:23:22.863Z,9
2023-03-27T02:24:23.060Z,9.5
2023-03-27T02:25:22.698Z,8.600
2023-03-27T02:26:23.024Z,8.199
2023-03-27T02:27:31.442Z,11
2023-03-27T02:28:22.487Z,13.10
2023-03-27T02:29:23.442Z,8
2023-03-27T02:30:23.653Z,11.30
2023-03-27T02:31:31.508Z,8.899
2023-03-27T02:32:22.941Z,7.300
2023-03-27T02:33:23.007Z,10.39
2023-03-27T02:34:23.470Z,8
2023-03-27T02:35:23.321Z,7.400
2023-03-27T02:36:23.202Z,9.100
2023-03-27T02:37:23.292Z,8.699
2023-03-27T02:38:22.952Z,7.900
2023-03-27T02:39:23.561Z,9.5
2023-03-27T02:40:23.604Z,11.30
2023-03-27T02:41:22.707Z,9.600
2023-03-27T02:42:22.344Z,7
2023-03-27T02:43:23.261Z,11.19
2023-03-27T02:44:23.548Z,10.10
2023-03-27T02:45:23.376Z,9.600
2023-03-27T02:46:23.139Z,9
2023-03-27T02:47:23.721Z,7.900
2023-03-27T02:48:22.936Z,8.899
2023-03-27T02:49:23.322Z,10.60
2023-03-27T02:50:23.282Z,9.100
2023-03-27T02:51:23.612Z,10.5
2023-03-27T02:54:23.484Z,8.600
2023-03-27T02:55:23.126Z,10.19
2023-03-27T02:56:23.010Z,10.30
2023-03-27T02:57:25.118Z,6.699
2023-03-27T02:58:22.599Z,8.600
2023-03-27T02:59:23.189Z,10.60
2023-03-27T03:00:24.626Z,9.399
2023-03-27T03:01:23.180Z,11
2023-03-27T03:02:23.655Z,10.69
2023-03-27T03:03:22.917Z,10.89
2023-03-27T03:04:23.320Z,11
2023-03-27T03:05:23.490Z,7.800
2023-03-27T03:06:23.792Z,8.699
2023-03-27T03:07:23.199Z,9.5
2023-03-27T03:08:23.026Z,11.19
2023-03-27T03:09:23.457Z,12.60
2023-03-27T03:10:23.193Z,9.5
2023-03-27T03:11:23.851Z,12
2023-03-27T03:12:23.322Z,9.699
2023-03-27T03:13:22.479Z,9.399
2023-03-27T03:14:22.988Z,10.69
2023-03-27T03:15:23.453Z,10.10
2023-03-27T03:16:23.308Z,8.899
2023-03-27T03:17:24.038Z,9.300
2023-03-27T03:18:23.320Z,8
2023-03-27T03:19:23.550Z,7.400
2023-03-27T03:20:23.730Z,10.89
2023-03-27T03:21:23.387Z,6.699
2023-03-27T03:22:23.379Z,8.899
2023-03-27T03:23:23.009Z,7.900
2023-03-27T03:24:23.335Z,8.699
2023-03-27T03:25:23.263Z,10.19
2023-03-27T03:26:23.393Z,8.800
2023-03-27T03:27:23.781Z,9.899
2023-03-27T03:28:23.575Z,10.10
2023-03-27T03:29:23.647Z,10.89
2023-03-27T03:30:22.813Z,10
2023-03-27T03:31:23.513Z,10.10
2023-03-27T03:32:23.620Z,11.60
2023-03-27T03:33:23.594Z,10.10
2023-03-27T03:34:23.384Z,7.800
2023-03-27T03:35:23.951Z,7.699
2023-03-27T03:36:23.544Z,8.399
2023-03-27T03:38:23.024Z,9.600
2023-03-27T03:39:23.511Z,11
2023-03-27T03:40:23.490Z,8.899
2023-03-27T03:41:23.367Z,9.100
2023-03-27T03:42:24.160Z,12.30
2023-03-27T03:43:23.237Z,8.399
2023-03-27T03:44:23.867Z,10.69
2023-03-27T03:45:23.877Z,9.399
2023-03-27T03:46:23.214Z,12
2023-03-27T03:47:23.618Z,6.900
2023-03-27T03:48:23.722Z,7.300
2023-03-27T03:49:23.460Z,10.69
2023-03-27T03:50:23.942Z,10.10
2023-03-27T03:51:24.065Z,9.699
2023-03-27T03:52:23.336Z,9.199
2023-03-27T03:53:23.789Z,8.699
2023-03-27T03:54:22.691Z,8.100
2023-03-27T03:55:23.523Z,10.30
2023-03-27T03:56:23.655Z,8.699
2023-03-27T03:58:34.872Z,9.699
2023-03-27T03:59:23.737Z,11.5
2023-03-27T04:00:24.927Z,9.399
2023-03-27T04:01:23.476Z,9.5
2023-03-27T04:02:23.921Z,9.300
2023-03-27T04:03:23.500Z,11.30
2023-03-27T04:04:23.400Z,12.80
2023-03-27T04:05:23.946Z,11.19
2023-03-27T04:06:23.714Z,12.19
2023-03-27T04:07:23.596Z,10.89
2023-03-27T04:08:23.026Z,8.100
2023-03-27T04:09:23.472Z,9.600
2023-03-27T04:10:24.423Z,8.899
2023-03-27T04:11:23.314Z,7.599
2023-03-27T04:12:23.644Z,9.100
2023-03-27T04:13:23.153Z,8.5
2023-03-27T04:14:24.352Z,7.900
2023-03-27T04:15:23.772Z,9.899
2023-03-27T04:16:23.450Z,12.80
2023-03-27T04:17:23.434Z,11.39
2023-03-27T04:18:23.206Z,10.10
2023-03-27T04:19:23.771Z,8.300
2023-03-27T04:20:23.946Z,8.399
2023-03-27T04:21:23.208Z,10.5
2023-03-27T04:22:23.692Z,7.699
2023-03-27T04:23:23.538Z,9.600
2023-03-27T04:24:23.844Z,9.399
2023-03-27T04:25:24.020Z,9.800
2023-03-27T04:27:23.576Z,8.899
2023-03-27T04:28:23.914Z,10.5
2023-03-27T04:29:23.796Z,10.60
2023-03-27T04:30:24.068Z,8
2023-03-27T04:31:24.074Z,9.600
2023-03-27T04:33:23.921Z,7.400
2023-03-27T04:34:23.371Z,11.39
2023-03-27T04:35:24.007Z,8
2023-03-27T04:36:23.842Z,9
2023-03-27T04:37:24.310Z,10.89
2023-03-27T04:38:28.664Z,9.800
2023-03-27T04:39:24.679Z,8.300
2023-03-27T04:40:28.673Z,10.19
2023-03-27T04:41:23.559Z,9.300
2023-03-27T04:42:23.559Z,9.699
2023-03-27T04:43:23.218Z,9.600
2023-03-27T04:44:24.357Z,8.300
2023-03-27T04:45:23.474Z,11.80
2023-03-27T04:46:23.341Z,10.30
2023-03-27T04:47:23.926Z,15.5
2023-03-27T04:48:23.621Z,8.199
2023-03-27T04:49:23.356Z,10.89
2023-03-27T04:50:31.556Z,6.900
2023-03-27T04:51:23.573Z,9.800
2023-03-27T04:52:31.116Z,9.199
2023-03-27T04:53:23.557Z,7.699
2023-03-27T04:54:24.150Z,7.900
2023-03-27T04:55:23.916Z,10.60
2023-03-27T04:56:24.234Z,7.199
2023-03-27T04:57:23.544Z,9.199
2023-03-27T04:58:23.129Z,10.5
2023-03-27T04:59:23.292Z,11
2023-03-27T05:00:25.370Z,7.900
2023-03-27T05:01:23.946Z,9.899
2023-03-27T05:02:38.231Z,9.100
2023-03-27T05:03:24.003Z,9.600
2023-03-27T05:04:23.478Z,8.899
2023-03-27T05:05:23.746Z,7.900
2023-03-27T05:06:23.478Z,8.199
2023-03-27T05:07:23.518Z,11.69
2023-03-27T05:08:23.198Z,7.599
2023-03-27T05:09:23.892Z,10.60
2023-03-27T05:10:23.513Z,11
2023-03-27T05:11:23.643Z,11.60
2023-03-27T05:12:23.230Z,7.099
2023-03-27T05:13:23.462Z,7.199
2023-03-27T05:14:23.642Z,8.899
2023-03-27T05:15:23.670Z,8.300
2023-03-27T05:16:23.718Z,8.399
2023-03-27T05:17:23.035Z,7.199
2023-03-27T05:18:23.899Z,11.80
2023-03-27T05:19:24.947Z,10.5
2023-03-27T05:20:23.356Z,7.599
2023-03-27T05:21:23.721Z,7.699
2023-03-27T05:22:23.712Z,10.30
2023-03-27T05:23:23.963Z,12.19
2023-03-27T05:24:45.983Z,11.19
2023-03-27T05:25:22.764Z,10.39
2023-03-27T05:26:23.400Z,8.399
2023-03-27T05:27:23.893Z,9.800
2023-03-27T05:28:23.949Z,11.60
2023-03-27T05:29:23.732Z,10.89
2023-03-27T05:30:24.100Z,11.69
2023-03-27T05:31:23.866Z,10.10
2023-03-27T05:32:23.751Z,8.399
2023-03-27T05:33:23.721Z,8.5
2023-03-27T05:34:23.863Z,7.099
2023-03-27T05:35:23.544Z,8.899
2023-03-27T05:36:23.425Z,7.400
2023-03-27T05:37:24.141Z,7.099
2023-03-27T05:38:23.425Z,9.600
2023-03-27T05:39:23.361Z,8.100
2023-03-27T05:40:23.833Z,10.10
2023-03-27T05:41:24.022Z,9
2023-03-27T05:42:23.636Z,10.69
2023-03-27T05:43:23.073Z,9.300
2023-03-27T05:44:23.742Z,7.599
2023-03-27T05:45:23.640Z,8.300
2023-03-27T05:46:23.071Z,9.800
2023-03-27T05:47:24.289Z,8.899
2023-03-27T05:48:23.166Z,9.5
2023-03-27T05:49:23.872Z,7.699
2023-03-27T05:50:23.407Z,9.199
2023-03-27T05:51:24.175Z,9.800
2023-03-27T05:52:28.654Z,12.39
2023-03-27T05:53:27.964Z,9.899
2023-03-27T05:54:23.490Z,9.100
2023-03-27T05:55:26.320Z,8.699
2023-03-27T05:56:23.564Z,10
2023-03-27T05:57:23.173Z,7.900
2023-03-27T05:58:23.662Z,8.699
2023-03-27T05:59:23.827Z,6.699
2023-03-27T06:01:27.842Z,7.300
2023-03-27T06:02:24.218Z,10.19
2023-03-27T06:03:23.779Z,8.300
2023-03-27T06:04:24.316Z,8.5
2023-03-27T06:05:23.739Z,7.400
2023-03-27T06:06:24.135Z,9.199
2023-03-27T06:07:24.451Z,10
2023-03-27T06:08:23.994Z,7.5
2023-03-27T06:10:23.535Z,6.599
2023-03-27T06:11:24.386Z,9.399
2023-03-27T06:12:24.302Z,8.800
2023-03-27T06:13:23.784Z,9.100
2023-03-27T06:14:23.619Z,8.100
2023-03-27T06:15:23.805Z,9.300
2023-03-27T06:16:23.327Z,8.5
2023-03-27T06:17:23.457Z,10.30
2023-03-27T06:18:23.130Z,10.10
2023-03-27T06:19:23.186Z,6.900
2023-03-27T06:20:23.903Z,8.699
2023-03-27T06:21:24.667Z,9.800
2023-03-27T06:22:24.168Z,10.60
2023-03-27T06:23:24.591Z,9.100
2023-03-27T06:24:23.984Z,9.199
2023-03-27T06:25:25.032Z,7.5
2023-03-27T06:26:24.234Z,8
2023-03-27T06:27:23.814Z,8.800
2023-03-27T06:28:22.757Z,9.5
2023-03-27T06:29:23.317Z,8
2023-03-27T06:30:23.974Z,8.699
2023-03-27T06:31:22.875Z,8.300
2023-03-27T06:32:23.384Z,12.60
2023-03-27T06:33:22.702Z,11
2023-03-27T06:34:23.603Z,8.300
2023-03-27T06:35:23.271Z,11
2023-03-27T06:36:23.418Z,7.800
2023-03-27T06:37:23.025Z,6.800
2023-03-27T06:38:23.668Z,9.800
2023-03-27T06:39:23.553Z,9.600
2023-03-27T06:40:23.952Z,8.699
2023-03-27T06:42:23.531Z,8
2023-03-27T06:43:23.216Z,7.699
2023-03-27T06:44:24.047Z,8.399
2023-03-27T06:45:23.767Z,10.39
2023-03-27T06:46:27.549Z,11.30
2023-03-27T06:47:23.581Z,8.300
2023-03-27T06:48:23.651Z,8.899
2023-03-27T06:49:23.762Z,9.5
2023-03-27T06:50:22.955Z,11.69
2023-03-27T06:51:24.036Z,9.5
2023-03-27T06:52:24.036Z,8.199
2023-03-27T06:53:27.904Z,10.30
2023-03-27T06:54:24.198Z,8.100
2023-03-27T06:55:23.997Z,8.800
2023-03-27T06:56:24.007Z,9.699
2023-03-27T06:57:23.753Z,9.100
2023-03-27T06:58:23.373Z,10.39
2023-03-27T06:59:23.835Z,7.199
2023-03-27T07:00:25.069Z,10.39
2023-03-27T07:01:23.937Z,10.69
2023-03-27T07:02:23.744Z,7.300
2023-03-27T07:03:23.686Z,9.300
2023-03-27T07:04:24.065Z,7.199
2023-03-27T07:05:23.846Z,8.199
2023-03-27T07:06:23.177Z,8.699
2023-03-27T07:07:24.008Z,6.099
2023-03-27T07:08:25.249Z,10.5
2023-03-27T07:09:23.932Z,11
2023-03-27T07:10:23.668Z,8.300
2023-03-27T07:11:23.626Z,7.599
2023-03-27T07:12:23.395Z,10
2023-03-27T07:13:23.961Z,9.600
2023-03-27T07:14:23.994Z,8.5
2023-03-27T07:15:24.380Z,7.300
2023-03-27T07:16:23.605Z,7.800
2023-03-27T07:17:23.488Z,8.5
2023-03-27T07:18:23.276Z,11.69
2023-03-27T07:19:23.418Z,9.800
2023-03-27T07:20:23.931Z,6.699
2023-03-27T07:21:23.896Z,7.900
2023-03-27T07:22:23.537Z,8
2023-03-27T07:23:24.094Z,9.399
2023-03-27T07:24:23.849Z,9.600
2023-03-27T07:25:23.578Z,8.399
2023-03-27T07:26:23.968Z,7.300
2023-03-27T07:27:37.180Z,21.79
2023-03-27T07:28:23.426Z,21.10
2023-03-27T07:29:23.852Z,12.19
2023-03-27T07:30:23.572Z,12.10
2023-03-27T07:32:36.258Z,10.39
2023-03-27T07:33:24.205Z,6.099
2023-03-27T07:34:23.462Z,6
2023-03-27T07:35:23.724Z,6.699
2023-03-27T07:36:22.927Z,7.199
2023-03-27T07:37:23.883Z,10.5
2023-03-27T07:38:22.903Z,8.699
2023-03-27T07:39:23.659Z,7.400
2023-03-27T07:40:29.381Z,6.599
2023-03-27T07:41:23.737Z,7.5
2023-03-27T07:42:23.548Z,7.400
2023-03-27T07:43:24.051Z,8
2023-03-27T07:44:24.110Z,7.599
2023-03-27T07:45:24.317Z,8.899
2023-03-27T07:46:23.456Z,6.900
2023-03-27T07:47:24.004Z,10.39
2023-03-27T07:48:23.353Z,6.900
2023-03-27T07:49:39.335Z,7.599
2023-03-27T07:50:24.515Z,9.399
2023-03-27T07:51:23.569Z,9.199
2023-03-27T07:52:23.835Z,8.5
2023-03-27T07:53:33.563Z,6.5
2023-03-27T07:54:24.016Z,7.5
2023-03-27T07:55:23.745Z,8.899
2023-03-27T07:56:23.703Z,9.600
2023-03-27T07:57:23.344Z,7.300
2023-03-27T07:58:23.932Z,9.800
2023-03-27T07:59:23.667Z,7.400
2023-03-27T08:00:24.192Z,8
2023-03-27T08:01:23.863Z,8.600
2023-03-27T08:02:23.796Z,6.800
2023-03-27T08:03:23.513Z,7.699
2023-03-27T08:04:23.871Z,8.5
2023-03-27T08:05:24.284Z,9.199
2023-03-27T08:06:23.965Z,8.600
2023-03-27T08:07:22.989Z,7.699
2023-03-27T08:08:23.543Z,9.600
2023-03-27T08:09:23.106Z,7.900
2023-03-27T08:10:23.540Z,10.10
2023-03-27T08:11:30.735Z,8.100
2023-03-27T08:12:23.657Z,12.60
2023-03-27T08:13:23.081Z,6.699
2023-03-27T08:14:23.643Z,6.900
2023-03-27T08:15:23.538Z,6
2023-03-27T08:16:23.261Z,8.100
2023-03-27T08:17:23.663Z,5.300
2023-03-27T08:18:23.775Z,7.5
2023-03-27T08:19:23.731Z,9.5
2023-03-27T08:20:23.916Z,6.5
2023-03-27T08:21:23.550Z,7.699
2023-03-27T08:22:24.096Z,9.399
2023-03-27T08:23:23.898Z,7
2023-03-27T08:24:23.465Z,6.5
2023-03-27T08:25:23.839Z,8.800
2023-03-27T08:26:23.592Z,7
2023-03-27T08:27:22.849Z,6.699
2023-03-27T08:28:23.212Z,7.800
2023-03-27T08:29:23.747Z,6.800
2023-03-27T08:30:23.528Z,6.900
2023-03-27T08:31:23.365Z,6.300
2023-03-27T08:32:23.247Z,5.300
2023-03-27T08:33:22.985Z,8.5
2023-03-27T08:34:23.657Z,5.800
2023-03-27T08:35:23.077Z,6.800
2023-03-27T08:36:23.417Z,9.899
2023-03-27T08:37:24.182Z,8.5
2023-03-27T08:38:26.937Z,7.099
2023-03-27T08:39:23.682Z,7.599
2023-03-27T08:40:23.535Z,8
2023-03-27T08:41:23.110Z,7.300
2023-03-27T08:42:23.372Z,7.599
2023-03-27T08:43:23.532Z,7.5
2023-03-27T08:44:23.164Z,5.300
2023-03-27T08:45:23.921Z,8.199
2023-03-27T08:46:23.698Z,7.800
2023-03-27T08:47:23.136Z,9.100
2023-03-27T08:48:23.284Z,8.300
2023-03-27T08:49:22.999Z,7.900
2023-03-27T08:50:23.212Z,6.800
2023-03-27T08:51:23.219Z,7.099
2023-03-27T08:52:23.209Z,6.400
2023-03-27T08:53:23.684Z,5.599
2023-03-27T08:54:23.522Z,7
2023-03-27T08:55:23.457Z,6.599
2023-03-27T08:56:23.585Z,6.699
2023-03-27T08:57:23.929Z,5.5
2023-03-27T08:58:23.429Z,7.199
2023-03-27T08:59:23.056Z,5.199
2023-03-27T09:00:24.137Z,6.5
2023-03-27T09:01:23.819Z,6.900
2023-03-27T09:02:23.622Z,6
2023-03-27T09:03:23.281Z,5.900
2023-03-27T09:04:23.177Z,7.300
2023-03-27T09:05:23.686Z,5.900
2023-03-27T09:06:23.480Z,6.900
2023-03-27T09:07:23.169Z,7.599
2023-03-27T09:08:22.771Z,4.400
2023-03-27T09:09:23.447Z,6.099
2023-03-27T09:10:23.363Z,6.400
2023-03-27T09:11:23.411Z,6
2023-03-27T09:12:23.353Z,5.099
2023-03-27T09:13:23.245Z,5.599
2023-03-27T09:14:23.613Z,6.199
2023-03-27T09:15:23.777Z,5.400
2023-03-27T09:16:22.808Z,8.100
2023-03-27T09:17:23.691Z,5.300
2023-03-27T09:18:23.321Z,5.900
2023-03-27T09:19:23.720Z,7
2023-03-27T09:20:23.766Z,6.699
2023-03-27T09:21:23.452Z,6.5
2023-03-27T09:22:23.283Z,5.5
2023-03-27T09:23:23.006Z,5.800
2023-03-27T09:24:23.659Z,5.5
2023-03-27T09:25:23.878Z,7.199
2023-03-27T09:26:28.397Z,6.699
2023-03-27T09:27:23.771Z,5.199
2023-03-27T09:28:28.018Z,5.400
2023-03-27T09:29:23.508Z,7.300
2023-03-27T09:30:28.502Z,5.400
2023-03-27T09:31:23.493Z,7.699
2023-03-27T09:32:33.289Z,6.599
2023-03-27T09:33:23.623Z,7.800
2023-03-27T09:34:23.350Z,9.399
2023-03-27T09:35:23.591Z,6.099
2023-03-27T09:36:23.638Z,8.199
2023-03-27T09:37:23.175Z,7.900
2023-03-27T09:38:23.390Z,8.5
2023-03-27T09:39:22.895Z,7.900
2023-03-27T09:40:23.521Z,7.199
2023-03-27T09:41:23.625Z,7.300
2023-03-27T09:42:23.463Z,8.300
2023-03-27T09:43:24.395Z,9.600
2023-03-27T09:44:23.796Z,6.400
2023-03-27T09:45:23.404Z,7.5
2023-03-27T09:46:37.127Z,6.800
2023-03-27T09:47:24.247Z,5.699
2023-03-27T09:48:23.757Z,4.900
2023-03-27T09:49:23.483Z,6.400
2023-03-27T09:50:24.529Z,6
2023-03-27T09:51:23.572Z,6.599
2023-03-27T09:52:23.728Z,7.300
2023-03-27T09:53:23.384Z,6.5
2023-03-27T09:54:23.422Z,6.800
2023-03-27T09:55:23.771Z,5.5
2023-03-27T09:56:23.790Z,5.199
2023-03-27T09:57:23.436Z,6.099
2023-03-27T09:58:23.919Z,6.599
2023-03-27T09:59:24.271Z,6.199
2023-03-27T10:00:38.483Z,4.400
2023-03-27T10:01:23.573Z,5.800
2023-03-27T10:02:42.372Z,6.800
2023-03-27T10:03:23.129Z,4.599
2023-03-27T10:04:23.616Z,5.599
2023-03-27T10:05:23.350Z,5.199
2023-03-27T10:06:23.348Z,6.099
2023-03-27T10:07:23.252Z,6.400
2023-03-27T10:08:25.991Z,5.900
2023-03-27T10:09:23.867Z,6.900
2023-03-27T10:10:23.532Z,9.699
2023-03-27T10:11:22.275Z,7.599
2023-03-27T10:12:24.079Z,5.400
2023-03-27T10:13:24.043Z,5.599
2023-03-27T10:14:23.047Z,5.699
2023-03-27T10:15:23.738Z,6.800
2023-03-27T10:16:23.250Z,5.300
2023-03-27T10:17:23.200Z,4.400
2023-03-27T10:18:23.205Z,7.199
2023-03-27T10:19:24.149Z,6.099
2023-03-27T10:20:24.650Z,6.199
2023-03-27T10:21:23.810Z,5.199
2023-03-27T10:22:23.545Z,4.900
2023-03-27T10:23:23.404Z,5.5
2023-03-27T10:24:23.467Z,4.900
2023-03-27T10:25:23.512Z,6.400
2023-03-27T10:26:23.841Z,5.400
2023-03-27T10:27:23.528Z,7.699
2023-03-27T10:28:24.397Z,11.80
2023-03-27T10:29:23.955Z,7.400
2023-03-27T10:30:24.348Z,6.900
2023-03-27T10:31:23.428Z,6.599
2023-03-27T10:32:23.482Z,6.400
2023-03-27T10:33:23.661Z,5.5
2023-03-27T10:34:24.443Z,6.800
2023-03-27T10:35:23.888Z,6
2023-03-27T10:36:23.746Z,7
2023-03-27T10:37:23.880Z,6.699
2023-03-27T10:39:23.254Z,5.300
2023-03-27T10:40:23.731Z,6.800
2023-03-27T10:41:28.847Z,6.400
2023-03-27T10:42:23.526Z,7.199
2023-03-27T10:43:22.613Z,7.099
2023-03-27T10:44:23.336Z,6.400
2023-03-27T10:45:23.899Z,7.599
2023-03-27T10:46:24.305Z,7
2023-03-27T10:47:24.072Z,6.300
2023-03-27T10:48:23.697Z,4.099
2023-03-27T10:49:23.745Z,6.300
2023-03-27T10:50:23.671Z,5.400
2023-03-27T10:51:24.902Z,5.599
2023-03-27T10:52:24.001Z,4.5
2023-03-27T10:53:23.916Z,5.5
2023-03-27T10:54:24.192Z,5.800
2023-03-27T10:55:24.392Z,7.699
2023-03-27T10:56:23.855Z,4.800
2023-03-27T10:57:24.263Z,5
2023-03-27T10:58:23.798Z,5.5
2023-03-27T10:59:34.547Z,6.900
2023-03-27T11:00:24.857Z,5.199
2023-03-27T11:01:24.202Z,8.100
2023-03-27T11:02:23.295Z,4.699
2023-03-27T11:03:23.520Z,5.900
2023-03-27T11:04:23.484Z,5.099
2023-03-27T11:05:24.912Z,6
2023-03-27T11:06:26.524Z,5.099
2023-03-27T11:07:23.420Z,5.599
2023-03-27T11:08:23.501Z,6.5
2023-03-27T11:10:23.841Z,5.699
2023-03-27T11:11:23.606Z,4.400
2023-03-27T11:13:24.162Z,4.599
2023-03-27T11:14:24.236Z,6.5
2023-03-27T11:15:24.564Z,7.300
2023-03-27T11:16:23.861Z,5.800
2023-03-27T11:18:23.578Z,5.199
2023-03-27T11:19:23.832Z,5.400
2023-03-27T11:20:26.259Z,5.800
2023-03-27T11:21:23.926Z,4.599
2023-03-27T11:22:23.068Z,5
2023-03-27T11:23:23.838Z,5.199
2023-03-27T11:24:24.285Z,6.099
2023-03-27T11:25:24.455Z,7.099
2023-03-27T11:26:23.709Z,7.800
2023-03-27T11:27:23.542Z,5.199
2023-03-27T11:28:23.368Z,4.800
2023-03-27T11:29:24.466Z,5.900
2023-03-27T11:30:24.062Z,5.699
2023-03-27T11:31:24.514Z,8.699
2023-03-27T11:32:23.534Z,5.5
2023-03-27T11:33:23.539Z,4.599
2023-03-27T11:34:28.942Z,4.900
2023-03-27T11:35:23.629Z,4.400
2023-03-27T11:36:23.442Z,6.400
2023-03-27T11:37:23.714Z,6.300
2023-03-27T11:38:24.053Z,6.599
2023-03-27T11:39:23.743Z,4.300
2023-03-27T11:40:23.311Z,4.800
2023-03-27T11:41:23.932Z,5.599
2023-03-27T11:42:24.027Z,4.400
2023-03-27T11:43:23.952Z,5.400
2023-03-27T11:44:23.662Z,5.5
2023-03-27T11:45:23.659Z,6.300
2023-03-27T11:46:23.700Z,4.699
2023-03-27T11:47:23.843Z,4.900
2023-03-27T11:48:24.106Z,5.599
2023-03-27T11:49:23.707Z,4.400
2023-03-27T11:51:23.633Z,5.400
2023-03-27T11:52:23.409Z,4.5
2023-03-27T11:53:28.410Z,5.199
2023-03-27T11:54:24.056Z,5.300
2023-03-27T11:55:31.290Z,3.099
2023-03-27T11:56:23.549Z,6.400
2023-03-27T11:57:23.561Z,3.400
2023-03-27T11:58:23.650Z,5.699
2023-03-27T11:59:28.726Z,2.700
2023-03-27T12:00:25.099Z,4.199
2023-03-27T12:01:24.125Z,5.900
2023-03-27T12:02:23.631Z,3.5
2023-03-27T12:03:23.891Z,4.5
2023-03-27T12:04:24.117Z,6.699
2023-03-27T12:05:32.212Z,4.900
2023-03-27T12:06:24.138Z,8
2023-03-27T12:07:35.390Z,7
2023-03-27T12:08:24.226Z,5.699
2023-03-27T12:09:23.585Z,5.599
2023-03-27T12:10:28.454Z,6.300
2023-03-27T12:11:23.535Z,5.5
2023-03-27T12:12:23.516Z,5.400
2023-03-27T12:13:28.789Z,4.699
2023-03-27T12:14:28.136Z,2.799
2023-03-27T12:15:24.332Z,4.699
2023-03-27T12:16:24.199Z,4.900
2023-03-27T12:17:23.350Z,5
2023-03-27T12:18:32.290Z,4.099
2023-03-27T12:20:24.738Z,3.799
2023-03-27T12:21:37.278Z,4.699
2023-03-27T12:23:22.954Z,4.900
2023-03-27T12:24:24.336Z,3.5
2023-03-27T12:25:23.590Z,5.300
2023-03-27T12:26:23.583Z,3.599
2023-03-27T12:27:23.694Z,4
2023-03-27T12:28:23.915Z,2.799
2023-03-27T12:29:24.458Z,2.599
2023-03-27T12:30:24.146Z,4
2023-03-27T12:31:23.833Z,4.900
2023-03-27T12:32:23.703Z,4.800
2023-03-27T12:33:23.295Z,4
2023-03-27T12:34:24.433Z,5.400
2023-03-27T12:35:25.754Z,3.599
2023-03-27T12:37:27.466Z,3.400
2023-03-27T12:39:25.988Z,3.599
2023-03-27T12:40:26.742Z,2.700
2023-03-27T12:41:44.545Z,4.5
2023-03-27T12:42:26.105Z,4.400
2023-03-27T12:43:25.129Z,5.5
2023-03-27T12:44:25.556Z,3.799
2023-03-27T12:45:25.925Z,3.599
2023-03-27T12:46:25.526Z,3.099
2023-03-27T12:47:25.233Z,3.5
2023-03-27T12:48:25.836Z,4.199
2023-03-27T12:49:34.215Z,4.699
2023-03-27T12:50:25.946Z,4.199
2023-03-27T12:52:26.556Z,8.800
2023-03-27T12:53:26.066Z,3.599
2023-03-27T12:54:25.275Z,3.700
2023-03-27T12:55:25.456Z,3.900
2023-03-27T12:56:26.838Z,2.799
2023-03-27T12:57:25.794Z,3.799
2023-03-27T12:58:25.504Z,3.5
2023-03-27T13:00:27.444Z,2.900
2023-03-27T13:01:26.667Z,3
2023-03-27T13:02:25.792Z,3.5
2023-03-27T13:03:25.677Z,3
2023-03-27T13:04:25.506Z,3.5
2023-03-27T13:05:27.791Z,3.799
2023-03-27T13:06:25.722Z,3.400
2023-03-27T13:07:25.296Z,2.5
2023-03-27T13:08:26.133Z,4.900
2023-03-27T13:09:26.302Z,5.599
2023-03-27T13:10:27.417Z,4.800
2023-03-27T13:11:26.269Z,3.900
2023-03-27T13:12:25.134Z,4.199
2023-03-27T13:13:25.365Z,2.799
2023-03-27T13:14:25.491Z,5.099
2023-03-27T13:15:26.342Z,4
2023-03-27T13:16:26.844Z,4.199
2023-03-27T13:17:27.037Z,6
2023-03-27T13:18:27.139Z,3.5
2023-03-27T13:19:26.660Z,4
2023-03-27T13:20:26.285Z,4.199
2023-03-27T13:21:24.345Z,3.799
2023-03-27T13:22:26.649Z,3.900
2023-03-27T13:23:25.582Z,4.400
2023-03-27T13:24:27.574Z,3.700
2023-03-27T13:25:26.633Z,2.099
2023-03-27T13:26:26.082Z,3.599
2023-03-27T13:27:26.221Z,4
2023-03-27T13:29:26.841Z,4.800
2023-03-27T13:30:26.090Z,4.599
2023-03-27T13:31:25.827Z,5.599